This is the latest recevied weather packets stored in our database for station/object SA3VCC-15. If no packets are shown the sender has not sent any weather packets the latest 10 day(s).
| Time | Temp. | Humidity | Pressure | Rain* | Wind** | Luminosity | Snow |
|---|---|---|---|---|---|---|---|
| 1777329477 | 0° C | 87% | 1022.3 hPa | - | - | - | - |
| 1777328217 | -0.56° C | 89% | 1022.3 hPa | - | - | - | - |
| 1777326957 | -0.56° C | 87% | 1022.2 hPa | - | - | - | - |
| 1777325697 | 0.56° C | 84% | 1022.1 hPa | - | - | - | - |
| 1777324437 | 1.11° C | 87% | 1022 hPa | - | - | - | - |
| 1777323177 | 0.56° C | 91% | 1021.9 hPa | - | - | - | - |
| 1777321916 | 0° C | 89% | 1022.1 hPa | - | - | - | - |
| 1777320656 | 0° C | 87% | 1022 hPa | - | - | - | - |
| 1777319396 | 1.11° C | 81% | 1021.9 hPa | - | - | - | - |
| 1777318136 | 2.22° C | 75% | 1021.8 hPa | - | - | - | - |
| 1777316876 | 3.33° C | 73% | 1021.7 hPa | - | - | - | - |
| 1777315616 | 3.33° C | 73% | 1021.7 hPa | - | - | - | - |
| 1777314356 | 3.89° C | 68% | 1021.7 hPa | - | - | - | - |
| 1777313096 | 4.44° C | 66% | 1021.5 hPa | - | - | - | - |
| 1777311836 | 4.44° C | 65% | 1021.5 hPa | - | - | - | - |
| 1777310576 | 5° C | 60% | 1021.2 hPa | - | - | - | - |
| 1777309316 | 6.11° C | 55% | 1021.1 hPa | - | - | - | - |
| 1777308056 | 6.67° C | 52% | 1020.7 hPa | - | - | - | - |
| 1777306796 | 8.89° C | 45% | 1020.3 hPa | - | - | - | - |
| 1777305536 | 8.89° C | 40% | 1020.2 hPa | - | - | - | - |
| 1777304276 | 10° C | 34% | 1019.8 hPa | - | - | - | - |
| 1777301756 | 9.44° C | 37% | 1019.9 hPa | - | - | - | - |
| 1777300496 | 10.56° C | 31% | 1019.5 hPa | - | - | - | - |
| 1777299236 | 14.44° C | 29% | 1019.5 hPa | - | - | - | - |
| 1777297976 | 9.44° C | 36% | 1019.7 hPa | - | - | - | - |
* Rain since midnight (hover to see other rain measurements)
** Current wind speed in m/s (hover to see current wind gust speed)